Time;durP1;ratioP1;P1;durP2;ratioP2;P2;SDS_P1;SDS_P2;PMS_P1;PMS_P2;Temp;Humidity;BMP_temperature;BMP_pressure;BME280_temperature;BME280_humidity;BME280_pressure;Samples;Min_cycle;Max_cycle;Signal;HPM_P1;HPM_P2
2021/03/02 00:02:03;;;;;;;;;;;19.50;52.00;;;;;;5053144;28;1372;-67
2021/03/02 00:04:29;;;;;;;;;;;19.50;52.00;;;;;;5073174;28;1163;-68
2021/03/02 00:06:54;;;;;;;;;;;19.50;52.10;;;;;;5074635;28;1270;-67
2021/03/02 00:09:19;;;;;;;;;;;19.50;52.20;;;;;;5072605;28;1081;-68
2021/03/02 00:11:45;;;;;;;;;;;19.50;52.20;;;;;;5072870;28;1159;-68
2021/03/02 00:14:10;;;;;;;;;;;19.50;52.30;;;;;;5074605;28;1511;-68
2021/03/02 00:16:37;;;;;;;;;;;19.50;52.30;;;;;;5074473;28;1352;-68
2021/03/02 00:19:07;;;;;;;;;;;19.50;52.40;;;;;;5071718;28;1909;-67
2021/03/02 00:21:33;;;;;;;;;;;19.50;52.40;;;;;;5072896;28;1091;-68
2021/03/02 00:23:59;;;;;;;;;;;19.50;52.50;;;;;;5052665;28;1593;-68
2021/03/02 00:26:24;;;;;;;;;;;19.50;52.50;;;;;;5079262;28;1445;-68
2021/03/02 00:28:50;;;;;;;;;;;19.50;53.10;;;;;;5093763;28;1074;-68
2021/03/02 00:31:15;;;;;;;;;;;19.50;52.60;;;;;;5076197;28;1193;-68
2021/03/02 00:33:41;;;;;;;;;;;19.40;52.50;;;;;;5072648;28;1151;-68
2021/03/02 00:36:07;;;;;;;;;;;19.50;52.60;;;;;;5072658;28;1329;-67
2021/03/02 00:38:32;;;;;;;;;;;19.50;52.60;;;;;;5072627;28;1980;-67
2021/03/02 00:40:58;;;;;;;;;;;19.40;52.60;;;;;;5072801;28;1067;-68
2021/03/02 00:43:23;;;;;;;;;;;19.40;52.70;;;;;;5073697;28;1331;-68
2021/03/02 00:45:49;;;;;;;;;;;19.40;52.70;;;;;;5073471;28;1063;-67
2021/03/02 00:48:14;;;;;;;;;;;19.40;52.70;;;;;;5072861;28;1339;-68
2021/03/02 00:50:40;;;;;;;;;;;19.40;52.70;;;;;;5072396;28;1072;-67
2021/03/02 00:53:05;;;;;;;;;;;19.40;52.70;;;;;;5073049;28;1063;-67
2021/03/02 00:55:31;;;;;;;;;;;19.40;52.80;;;;;;5073700;28;1083;-67
2021/03/02 00:57:56;;;;;;;;;;;19.40;52.80;;;;;;5072618;28;1267;-67
2021/03/02 01:00:22;;;;;;;;;;;19.40;52.80;;;;;;5073690;28;1957;-67
2021/03/02 01:02:47;;;;;;;;;;;19.40;52.80;;;;;;5073070;28;1169;-68
2021/03/02 01:05:13;;;;;;;;;;;19.40;52.90;;;;;;5073464;28;980;-68
2021/03/02 01:07:38;;;;;;;;;;;19.40;52.90;;;;;;5072628;28;1286;-67
2021/03/02 01:10:04;;;;;;;;;;;19.40;52.90;;;;;;5073607;28;1067;-67
2021/03/02 01:12:30;;;;;;;;;;;19.40;52.90;;;;;;5072850;28;1135;-68
2021/03/02 01:14:55;;;;;;;;;;;19.40;52.90;;;;;;5073191;28;1274;-68
2021/03/02 01:17:21;;;;;;;;;;;19.40;53.00;;;;;;5071056;28;1333;-68
2021/03/02 01:19:46;;;;;;;;;;;19.40;53.00;;;;;;5073060;28;1898;-68
2021/03/02 01:22:12;;;;;;;;;;;19.40;53.00;;;;;;5071247;28;1131;-68
2021/03/02 01:24:37;;;;;;;;;;;19.40;53.00;;;;;;5072672;28;1039;-68
2021/03/02 01:27:03;;;;;;;;;;;19.40;53.00;;;;;;5051062;28;2051;-67
2021/03/02 01:29:28;;;;;;;;;;;19.40;53.10;;;;;;5064104;28;1099;-68
2021/03/02 01:31:54;;;;;;;;;;;19.30;53.00;;;;;;5072715;28;1158;-67
2021/03/02 01:34:19;;;;;;;;;;;19.30;53.10;;;;;;5071381;28;1173;-68
2021/03/02 01:36:44;;;;;;;;;;;19.30;53.10;;;;;;5090303;28;1364;-68
2021/03/02 01:39:10;;;;;;;;;;;19.30;53.10;;;;;;5092356;28;1902;-68
2021/03/02 01:41:35;;;;;;;;;;;19.30;53.10;;;;;;5076148;28;1019;-69
2021/03/02 01:44:01;;;;;;;;;;;19.30;53.10;;;;;;5072283;28;1118;-68
2021/03/02 01:46:26;;;;;;;;;;;19.30;53.10;;;;;;5088561;28;1271;-68
2021/03/02 01:48:52;;;;;;;;;;;19.30;53.20;;;;;;5092419;28;1284;-68
2021/03/02 01:51:17;;;;;;;;;;;19.30;53.20;;;;;;5092718;28;1279;-68
2021/03/02 01:53:43;;;;;;;;;;;19.30;53.20;;;;;;5092419;28;1134;-68
2021/03/02 01:56:08;;;;;;;;;;;19.30;53.20;;;;;;5092821;28;1015;-67
2021/03/02 01:58:33;;;;;;;;;;;19.30;53.20;;;;;;5073845;28;1894;-68
2021/03/02 02:01:00;;;;;;;;;;;19.30;53.30;;;;;;5093206;28;1072;-67
2021/03/02 02:03:28;;;;;;;;;;;19.30;53.30;;;;;;5092413;28;1082;-68
2021/03/02 02:06:12;;;;;;;;;;;19.30;53.30;;;;;;5092683;28;1059;-68
2021/03/02 02:08:49;;;;;;;;;;;19.30;53.30;;;;;;5092166;28;1259;-68
2021/03/02 02:11:35;;;;;;;;;;;19.30;53.30;;;;;;5091195;28;1147;-67
2021/03/02 02:14:09;;;;;;;;;;;19.30;53.40;;;;;;5090802;28;1518;-68
2021/03/02 02:16:34;;;;;;;;;;;19.30;53.30;;;;;;5092210;28;1291;-67
2021/03/02 02:19:00;;;;;;;;;;;19.30;53.30;;;;;;5091636;28;1961;-68
2021/03/02 02:21:51;;;;;;;;;;;19.30;53.40;;;;;;5092417;28;1089;-67
2021/03/02 02:24:23;;;;;;;;;;;19.30;53.40;;;;;;5090405;28;1194;-68
2021/03/02 02:29:30;;;;;;;;;;;19.30;53.40;;;;;;5033966;28;1324;-66
2021/03/02 02:31:57;;;;;;;;;;;19.30;53.40;;;;;;5049960;28;1180;-67
2021/03/02 02:34:22;;;;;;;;;;;19.30;53.40;;;;;;5034728;28;1317;-67
2021/03/02 02:36:48;;;;;;;;;;;19.30;53.40;;;;;;5052168;28;1266;-67
2021/03/02 02:39:14;;;;;;;;;;;19.30;53.40;;;;;;5033355;28;1914;-67
2021/03/02 02:41:39;;;;;;;;;;;19.30;53.40;;;;;;5034245;28;1335;-67
2021/03/02 02:44:05;;;;;;;;;;;19.30;53.40;;;;;;5033718;28;1274;-66
2021/03/02 02:46:30;;;;;;;;;;;19.30;53.40;;;;;;5033870;28;1293;-67
2021/03/02 02:48:56;;;;;;;;;;;19.30;53.50;;;;;;5033553;28;1344;-66
2021/03/02 02:51:21;;;;;;;;;;;19.20;53.50;;;;;;5052102;28;1120;-66
2021/03/02 02:53:47;;;;;;;;;;;19.20;53.50;;;;;;5034418;28;1076;-65
2021/03/02 02:56:12;;;;;;;;;;;19.30;53.50;;;;;;5034374;28;1327;-66
2021/03/02 02:58:40;;;;;;;;;;;19.20;53.50;;;;;;5033897;28;1975;-65
2021/03/02 03:01:05;;;;;;;;;;;19.20;53.50;;;;;;5052391;28;1359;-66
2021/03/02 03:03:32;;;;;;;;;;;19.20;53.50;;;;;;5052080;28;934;-65
2021/03/02 03:05:58;;;;;;;;;;;19.20;53.50;;;;;;5037262;28;1332;-67
2021/03/02 03:08:25;;;;;;;;;;;19.20;53.60;;;;;;5055338;28;1204;-67
2021/03/02 03:10:51;;;;;;;;;;;19.20;53.60;;;;;;5055874;28;1280;-65
2021/03/02 03:13:18;;;;;;;;;;;19.20;53.60;;;;;;5055600;28;1290;-66
2021/03/02 03:15:48;;;;;;;;;;;19.20;53.60;;;;;;5037917;28;1254;-65
2021/03/02 03:18:13;;;;;;;;;;;19.30;53.60;;;;;;5037415;28;1910;-66
2021/03/02 03:20:38;;;;;;;;;;;19.20;53.60;;;;;;5037908;28;1368;-65
2021/03/02 03:23:04;;;;;;;;;;;19.20;53.60;;;;;;5037712;28;1104;-66
2021/03/02 03:25:30;;;;;;;;;;;19.20;53.60;;;;;;5055864;28;1415;-66
2021/03/02 03:27:56;;;;;;;;;;;19.20;53.60;;;;;;5037492;28;1286;-65
2021/03/02 03:30:22;;;;;;;;;;;19.20;53.60;;;;;;5037609;28;1166;-65
2021/03/02 03:32:47;;;;;;;;;;;19.20;53.70;;;;;;5037891;28;1140;-66
2021/03/02 03:35:13;;;;;;;;;;;19.20;53.70;;;;;;5037507;28;1342;-66
2021/03/02 03:37:39;;;;;;;;;;;19.20;53.70;;;;;;5036989;28;1423;-66
2021/03/02 03:40:04;;;;;;;;;;;19.20;53.70;;;;;;5054975;28;1898;-66
2021/03/02 03:42:30;;;;;;;;;;;19.20;53.60;;;;;;5037444;28;1119;-66
2021/03/02 03:44:55;;;;;;;;;;;19.20;53.60;;;;;;5055154;28;1143;-66
2021/03/02 03:47:21;;;;;;;;;;;19.20;53.50;;;;;;5054764;28;1354;-67
2021/03/02 03:49:46;;;;;;;;;;;19.20;53.50;;;;;;5037235;28;1191;-66
2021/03/02 03:52:11;;;;;;;;;;;19.20;53.50;;;;;;5037145;28;1147;-66
2021/03/02 03:54:37;;;;;;;;;;;19.20;53.40;;;;;;5037230;28;1184;-66
2021/03/02 03:57:02;;;;;;;;;;;19.30;53.40;;;;;;5037006;28;1203;-66
2021/03/02 03:59:28;;;;;;;;;;;19.30;53.40;;;;;;5055103;28;1957;-66
2021/03/02 04:01:54;;;;;;;;;;;19.30;53.40;;;;;;5054951;28;1376;-65
2021/03/02 04:04:19;;;;;;;;;;;19.30;53.30;;;;;;5036983;28;1014;-65
2021/03/02 04:06:45;;;;;;;;;;;19.30;53.30;;;;;;5036932;28;1097;-66
2021/03/02 04:09:10;;;;;;;;;;;19.30;53.30;;;;;;5053910;28;1287;-65
2021/03/02 04:11:36;;;;;;;;;;;19.30;53.30;;;;;;5036924;28;1077;-65
2021/03/02 04:14:02;;;;;;;;;;;19.40;53.30;;;;;;5054450;28;1150;-66
2021/03/02 04:16:27;;;;;;;;;;;19.40;53.20;;;;;;5053355;28;1060;-66
2021/03/02 04:18:52;;;;;;;;;;;19.40;53.10;;;;;;5053985;28;1949;-66
2021/03/02 04:21:18;;;;;;;;;;;19.60;53.00;;;;;;5036787;28;1069;-66
2021/03/02 04:23:43;;;;;;;;;;;19.60;52.80;;;;;;5054321;28;1339;-65
2021/03/02 04:26:09;;;;;;;;;;;19.80;52.70;;;;;;5054547;28;1056;-66
2021/03/02 04:28:34;;;;;;;;;;;19.80;52.40;;;;;;5053970;28;1346;-66
2021/03/02 04:31:00;;;;;;;;;;;20.00;52.30;;;;;;5054311;28;1115;-66
2021/03/02 04:33:25;;;;;;;;;;;20.10;52.10;;;;;;5036391;28;1314;-66
2021/03/02 04:35:50;;;;;;;;;;;20.20;51.80;;;;;;5019778;28;1089;-68
2021/03/02 04:38:16;;;;;;;;;;;20.30;51.70;;;;;;5053872;28;1898;-67
2021/03/02 04:40:41;;;;;;;;;;;20.40;51.50;;;;;;5054216;28;1072;-68
2021/03/02 04:43:07;;;;;;;;;;;20.40;51.20;;;;;;5054188;28;1492;-67
2021/03/02 04:45:32;;;;;;;;;;;20.50;51.10;;;;;;5054041;28;1170;-66
2021/03/02 04:47:58;;;;;;;;;;;20.60;51.00;;;;;;5053572;28;1348;-66
2021/03/02 04:50:23;;;;;;;;;;;20.70;50.90;;;;;;5036155;28;1186;-66
2021/03/02 04:52:48;;;;;;;;;;;20.70;50.70;;;;;;5035903;28;1314;-65
2021/03/02 04:55:14;;;;;;;;;;;20.80;50.60;;;;;;5053737;28;1068;-66
2021/03/02 04:57:39;;;;;;;;;;;20.80;50.50;;;;;;5053414;28;1209;-65
2021/03/02 05:00:05;;;;;;;;;;;20.80;50.40;;;;;;5053704;28;1944;-65
2021/03/02 05:02:31;;;;;;;;;;;20.90;50.40;;;;;;5035872;28;1088;-66
2021/03/02 05:04:56;;;;;;;;;;;20.90;50.30;;;;;;5053588;28;1084;-66
2021/03/02 05:07:22;;;;;;;;;;;20.90;50.20;;;;;;5052903;28;1253;-65
2021/03/02 05:09:47;;;;;;;;;;;21.00;50.20;;;;;;5053605;28;1262;-66
2021/03/02 05:12:13;;;;;;;;;;;21.00;50.10;;;;;;5053558;28;1108;-66
2021/03/02 05:14:38;;;;;;;;;;;21.00;50.10;;;;;;5053491;28;1088;-66
2021/03/02 05:17:03;;;;;;;;;;;21.10;50.10;;;;;;5053156;28;1267;-66
2021/03/02 05:19:30;;;;;;;;;;;21.10;50.00;;;;;;5053226;28;1894;-66
2021/03/02 05:21:55;;;;;;;;;;;21.10;49.90;;;;;;5052908;28;1446;-66
2021/03/02 05:24:20;;;;;;;;;;;21.10;49.90;;;;;;5053149;28;1068;-65
2021/03/02 05:26:46;;;;;;;;;;;21.20;49.90;;;;;;5053190;28;1175;-66
2021/03/02 05:29:11;;;;;;;;;;;21.20;49.90;;;;;;5034554;28;1269;-66
2021/03/02 05:31:37;;;;;;;;;;;21.30;49.90;;;;;;5035235;28;1475;-65
2021/03/02 05:34:02;;;;;;;;;;;21.30;49.80;;;;;;5035363;28;1179;-66
2021/03/02 05:36:27;;;;;;;;;;;21.30;49.80;;;;;;5052640;28;1060;-65
2021/03/02 05:38:53;;;;;;;;;;;21.30;49.80;;;;;;5052548;28;1898;-65
2021/03/02 05:41:18;;;;;;;;;;;21.30;49.70;;;;;;5052920;28;1143;-66
2021/03/02 05:43:44;;;;;;;;;;;21.40;49.70;;;;;;5052909;28;1261;-66
2021/03/02 05:46:09;;;;;;;;;;;21.40;49.70;;;;;;5034911;28;1081;-65
2021/03/02 05:48:35;;;;;;;;;;;21.40;49.70;;;;;;5052658;28;1323;-65
2021/03/02 05:51:00;;;;;;;;;;;21.40;49.70;;;;;;5034613;28;1118;-66
2021/03/02 05:53:26;;;;;;;;;;;21.40;49.60;;;;;;5034621;28;1320;-67
2021/03/02 05:55:51;;;;;;;;;;;21.40;49.60;;;;;;5035150;28;1402;-65
2021/03/02 05:58:17;;;;;;;;;;;21.40;49.60;;;;;;5034257;28;1894;-66
2021/03/02 06:00:42;;;;;;;;;;;21.50;49.60;;;;;;5052903;28;1339;-66
2021/03/02 06:03:08;;;;;;;;;;;21.50;49.60;;;;;;5035011;28;1065;-66
2021/03/02 06:05:34;;;;;;;;;;;21.50;49.50;;;;;;5052311;28;1068;-66
2021/03/02 06:07:59;;;;;;;;;;;21.50;49.50;;;;;;5052023;28;1282;-66
2021/03/02 06:10:31;;;;;;;;;;;21.50;49.50;;;;;;5034926;28;1322;-66
2021/03/02 06:12:57;;;;;;;;;;;21.50;49.50;;;;;;5034468;28;1151;-66
2021/03/02 06:15:23;;;;;;;;;;;21.50;49.50;;;;;;5034627;28;1076;-66
2021/03/02 06:17:55;;;;;;;;;;;21.60;49.50;;;;;;5034505;28;1280;-66
2021/03/02 06:20:20;;;;;;;;;;;21.60;49.50;;;;;;5034175;28;1911;-66
2021/03/02 06:22:46;;;;;;;;;;;21.60;49.40;;;;;;5034321;28;1296;-65
2021/03/02 06:25:30;;;;;;;;;;;21.60;49.40;;;;;;5052582;28;1402;-67
2021/03/02 06:27:55;;;;;;;;;;;21.60;50.10;;;;;;5051710;28;1500;-66
2021/03/02 06:30:21;;;;;;;;;;;21.60;49.50;;;;;;5034265;28;1347;-66
2021/03/02 06:32:52;;;;;;;;;;;21.60;49.50;;;;;;5034319;28;1319;-66
2021/03/02 06:35:52;;;;;;;;;;;21.60;49.50;;;;;;5052066;28;1091;-66
2021/03/02 06:38:28;;;;;;;;;;;21.60;49.50;;;;;;4951176;28;1899;-67
2021/03/02 06:40:53;;;;;;;;;;;21.60;50.20;;;;;;5035324;28;1314;-66
2021/03/02 06:43:29;;;;;;;;;;;21.60;49.70;;;;;;5056147;28;1265;-65
2021/03/02 06:45:54;;;;;;;;;;;21.50;49.60;;;;;;5056296;28;1296;-66
2021/03/02 06:48:20;;;;;;;;;;;21.50;49.70;;;;;;5037795;28;1344;-66
2021/03/02 06:50:45;;;;;;;;;;;21.50;49.80;;;;;;5056196;28;1422;-66
2021/03/02 06:53:11;;;;;;;;;;;21.50;49.80;;;;;;5056096;28;1198;-66
2021/03/02 06:55:38;;;;;;;;;;;21.50;49.80;;;;;;5056539;28;985;-66
2021/03/02 06:58:19;;;;;;;;;;;21.40;49.80;;;;;;5055308;28;1407;-65
2021/03/02 07:01:04;;;;;;;;;;;21.40;49.90;;;;;;5056226;28;1682;-66
2021/03/02 07:03:30;;;;;;;;;;;21.40;50.00;;;;;;5055292;28;1066;-65
2021/03/02 07:05:57;;;;;;;;;;;21.40;50.10;;;;;;5055856;28;1401;-66
2021/03/02 07:08:23;;;;;;;;;;;21.40;50.10;;;;;;5055281;28;1287;-65
2021/03/02 07:10:53;;;;;;;;;;;21.40;50.20;;;;;;5055851;28;1324;-66
2021/03/02 07:13:18;;;;;;;;;;;21.30;50.20;;;;;;5056116;28;1276;-66
2021/03/02 07:15:45;;;;;;;;;;;21.30;50.30;;;;;;5055600;28;1084;-66
2021/03/02 07:18:11;;;;;;;;;;;21.30;50.30;;;;;;5037484;28;1645;-66
2021/03/02 07:20:36;;;;;;;;;;;21.20;50.40;;;;;;5037396;28;1907;-67
2021/03/02 07:23:02;;;;;;;;;;;21.20;50.40;;;;;;5055451;28;1391;-66
2021/03/02 07:25:29;;;;;;;;;;;21.20;50.50;;;;;;5037421;28;1367;-67
2021/03/02 07:27:56;;;;;;;;;;;21.20;50.50;;;;;;5054985;28;1281;-66
2021/03/02 07:30:21;;;;;;;;;;;21.20;50.60;;;;;;5037462;28;1104;-66
2021/03/02 07:32:47;;;;;;;;;;;21.10;50.60;;;;;;5055394;28;1069;-66
2021/03/02 07:35:31;;;;;;;;;;;21.10;50.70;;;;;;5037234;28;1278;-66
2021/03/02 07:38:15;;;;;;;;;;;21.10;50.70;;;;;;5037035;28;1396;-66
2021/03/02 07:40:41;;;;;;;;;;;21.10;50.80;;;;;;5037122;28;1906;-66
2021/03/02 07:43:25;;;;;;;;;;;21.00;50.80;;;;;;5054972;28;1328;-65
2021/03/02 07:45:51;;;;;;;;;;;21.00;50.80;;;;;;5055695;28;1324;-66
2021/03/02 07:48:29;;;;;;;;;;;21.00;50.90;;;;;;5054449;28;1304;-67
2021/03/02 07:51:10;;;;;;;;;;;21.00;51.00;;;;;;5054558;28;1326;-66
2021/03/02 07:53:36;;;;;;;;;;;21.00;51.00;;;;;;5054216;28;1244;-66
2021/03/02 07:56:20;;;;;;;;;;;20.90;51.00;;;;;;5032977;28;1069;-66
2021/03/02 07:59:04;;;;;;;;;;;20.90;51.00;;;;;;5044874;28;1898;-66
2021/03/02 08:01:29;;;;;;;;;;;20.90;51.40;;;;;;5027389;28;1241;-66
2021/03/02 08:04:13;;;;;;;;;;;20.90;52.60;;;;;;5031044;28;1204;-66
2021/03/02 08:06:38;;;;;;;;;;;20.90;52.80;;;;;;5045642;28;1189;-65
2021/03/02 08:09:27;;;;;;;;;;;20.90;52.90;;;;;;5028506;28;1258;-66
2021/03/02 08:11:54;;;;;;;;;;;20.90;52.80;;;;;;5034579;28;1786;-65
2021/03/02 08:14:27;;;;;;;;;;;20.80;53.30;;;;;;5036746;28;1294;-66
2021/03/02 08:16:56;;;;;;;;;;;20.80;53.40;;;;;;5054576;28;1481;-66
2021/03/02 08:19:34;;;;;;;;;;;20.80;53.40;;;;;;5054102;28;1890;-66
2021/03/02 08:22:00;;;;;;;;;;;20.80;53.40;;;;;;5054449;28;1375;-66
2021/03/02 08:24:45;;;;;;;;;;;20.80;53.40;;;;;;5054042;28;1283;-66
2021/03/02 08:27:10;;;;;;;;;;;20.80;53.60;;;;;;5053741;28;1332;-66
2021/03/02 08:29:36;;;;;;;;;;;20.80;54.00;;;;;;5031794;28;1960;-68
2021/03/02 08:32:01;;;;;;;;;;;20.80;54.20;;;;;;5031373;28;1338;-65
2021/03/02 08:34:27;;;;;;;;;;;20.80;54.30;;;;;;5036097;28;1194;-65
2021/03/02 08:36:52;;;;;;;;;;;20.80;54.60;;;;;;5054102;28;1282;-66
2021/03/02 08:39:18;;;;;;;;;;;20.80;54.70;;;;;;5053655;28;1953;-65
2021/03/02 08:41:44;;;;;;;;;;;20.80;54.70;;;;;;5053780;28;1447;-66
2021/03/02 08:44:17;;;;;;;;;;;20.80;55.70;;;;;;5054098;28;1100;-66
2021/03/02 08:46:43;;;;;;;;;;;20.80;54.70;;;;;;5035981;28;1362;-65
2021/03/02 08:49:11;;;;;;;;;;;20.80;54.90;;;;;;5050554;28;1833;-66
2021/03/02 08:51:37;;;;;;;;;;;20.70;54.70;;;;;;5050601;28;1492;-65
2021/03/02 08:54:02;;;;;;;;;;;20.70;54.60;;;;;;5051397;28;1095;-64
2021/03/02 08:56:28;;;;;;;;;;;20.70;54.70;;;;;;5050848;28;1159;-64
2021/03/02 08:58:54;;;;;;;;;;;20.70;54.70;;;;;;5029777;28;1938;-65
2021/03/02 09:01:22;;;;;;;;;;;20.70;54.80;;;;;;5028401;28;1275;-65
2021/03/02 09:03:48;;;;;;;;;;;20.70;55.00;;;;;;5046019;28;1325;-64
2021/03/02 09:06:19;;;;;;;;;;;20.70;55.00;;;;;;5053468;28;1167;-66
2021/03/02 09:08:45;;;;;;;;;;;20.70;55.00;;;;;;5034413;28;1332;-64
2021/03/02 09:11:10;;;;;;;;;;;20.70;55.20;;;;;;5051949;28;1263;-64
2021/03/02 09:13:36;;;;;;;;;;;20.70;55.30;;;;;;5047053;28;1087;-65
2021/03/02 09:16:02;;;;;;;;;;;20.70;55.30;;;;;;5053381;28;1056;-64
2021/03/02 09:18:27;;;;;;;;;;;20.70;55.50;;;;;;5052797;28;1957;-64
2021/03/02 09:20:55;;;;;;;;;;;20.70;56.00;;;;;;5053581;28;1300;-65
2021/03/02 09:23:21;;;;;;;;;;;20.70;55.50;;;;;;5053192;28;1328;-64
2021/03/02 09:25:47;;;;;;;;;;;20.70;55.70;;;;;;5035079;28;1332;-64
2021/03/02 09:28:15;;;;;;;;;;;20.70;55.60;;;;;;5052549;28;1412;-65
2021/03/02 09:30:41;;;;;;;;;;;20.70;55.60;;;;;;5045774;28;1100;-65
2021/03/02 09:33:06;;;;;;;;;;;20.70;55.70;;;;;;5045945;28;1273;-66
2021/03/02 09:35:32;;;;;;;;;;;20.60;55.70;;;;;;5023049;28;1302;-64
2021/03/02 09:37:57;;;;;;;;;;;20.60;55.60;;;;;;5043617;28;1308;-65
2021/03/02 09:40:23;;;;;;;;;;;20.60;55.50;;;;;;5025023;28;1906;-67
2021/03/02 09:42:52;;;;;;;;;;;20.60;55.60;;;;;;5047149;28;1251;-65
2021/03/02 09:45:17;;;;;;;;;;;20.60;55.60;;;;;;5052468;28;1394;-66
2021/03/02 09:47:43;;;;;;;;;;;20.60;55.60;;;;;;5047482;28;1287;-65
2021/03/02 09:50:14;;;;;;;;;;;20.60;55.60;;;;;;5053072;28;1382;-65
2021/03/02 09:52:46;;;;;;;;;;;20.60;55.60;;;;;;5034751;28;1309;-68
2021/03/02 09:55:11;;;;;;;;;;;20.60;55.70;;;;;;5034837;28;1328;-68
2021/03/02 09:57:55;;;;;;;;;;;20.60;55.70;;;;;;5052274;28;1256;-65
2021/03/02 10:00:26;;;;;;;;;;;20.60;55.70;;;;;;5052705;28;1898;-66
2021/03/02 10:02:53;;;;;;;;;;;20.60;56.40;;;;;;5034720;28;1733;-66
2021/03/02 10:05:34;;;;;;;;;;;20.60;55.80;;;;;;5052515;28;1253;-68
2021/03/02 10:08:15;;;;;;;;;;;20.50;55.90;;;;;;5019041;28;1310;-66
2021/03/02 10:10:40;;;;;;;;;;;20.50;56.00;;;;;;5048920;28;1283;-66
2021/03/02 10:13:06;;;;;;;;;;;20.50;56.20;;;;;;5051804;28;1049;-66
2021/03/02 10:15:32;;;;;;;;;;;20.60;56.30;;;;;;5052062;28;1276;-67
2021/03/02 10:17:59;;;;;;;;;;;20.50;56.40;;;;;;5051760;28;1341;-65
2021/03/02 10:20:24;;;;;;;;;;;20.50;56.50;;;;;;5034470;28;1894;-65
2021/03/02 10:23:02;;;;;;;;;;;20.50;56.70;;;;;;5039117;28;1148;-66
2021/03/02 10:25:38;;;;;;;;;;;20.50;56.70;;;;;;5022588;28;1315;-66
2021/03/02 10:28:04;;;;;;;;;;;20.50;56.90;;;;;;5044703;28;1333;-65
2021/03/02 10:30:29;;;;;;;;;;;20.50;57.10;;;;;;5052285;28;1434;-66
2021/03/02 10:32:55;;;;;;;;;;;20.50;57.20;;;;;;5052363;28;1277;-69
2021/03/02 10:35:20;;;;;;;;;;;20.50;56.90;;;;;;5034493;28;1278;-64
2021/03/02 10:37:45;;;;;;;;;;;20.60;56.90;;;;;;5040827;28;2020;-63
2021/03/02 10:40:11;;;;;;;;;;;20.50;56.80;;;;;;5032156;28;1910;-66
2021/03/02 10:42:37;;;;;;;;;;;20.60;56.90;;;;;;5052095;28;1298;-64
2021/03/02 10:45:03;;;;;;;;;;;20.60;56.80;;;;;;5051951;28;1247;-64
2021/03/02 10:47:28;;;;;;;;;;;20.50;56.70;;;;;;5051687;28;2009;-64
2021/03/02 10:49:54;;;;;;;;;;;20.50;56.60;;;;;;5051988;28;1316;-65
2021/03/02 10:52:22;;;;;;;;;;;20.50;56.60;;;;;;5052153;28;1267;-67
2021/03/02 10:54:47;;;;;;;;;;;20.50;56.60;;;;;;5051931;28;1276;-67
2021/03/02 10:57:13;;;;;;;;;;;20.60;56.70;;;;;;5051526;28;1341;-67
2021/03/02 10:59:38;;;;;;;;;;;20.50;56.50;;;;;;5051706;28;1902;-66
2021/03/02 11:02:04;;;;;;;;;;;20.50;56.60;;;;;;5052151;28;1625;-66
2021/03/02 11:04:29;;;;;;;;;;;20.50;56.50;;;;;;5052037;28;1280;-66
2021/03/02 11:06:55;;;;;;;;;;;20.50;56.40;;;;;;5052081;28;1362;-69
2021/03/02 11:09:20;;;;;;;;;;;20.50;56.40;;;;;;5051292;28;1398;-66
2021/03/02 11:11:46;;;;;;;;;;;20.50;56.40;;;;;;5051956;28;1405;-67
2021/03/02 11:14:11;;;;;;;;;;;20.50;56.40;;;;;;5051534;28;1348;-67
2021/03/02 11:16:37;;;;;;;;;;;20.50;56.60;;;;;;5051957;28;1325;-67
2021/03/02 11:19:02;;;;;;;;;;;20.50;56.50;;;;;;5033553;28;1879;-67
2021/03/02 11:21:28;;;;;;;;;;;20.50;56.40;;;;;;5051841;28;1263;-65
2021/03/02 11:23:53;;;;;;;;;;;20.50;56.30;;;;;;5051976;28;1403;-65
2021/03/02 11:26:19;;;;;;;;;;;20.50;56.40;;;;;;5053780;28;1359;-65
2021/03/02 11:28:44;;;;;;;;;;;20.50;56.30;;;;;;5054735;28;1369;-64
2021/03/02 11:31:09;;;;;;;;;;;20.50;56.40;;;;;;5037294;28;1123;-64
2021/03/02 11:33:35;;;;;;;;;;;20.50;56.30;;;;;;5055263;28;1395;-67
2021/03/02 11:36:00;;;;;;;;;;;20.50;56.40;;;;;;5055336;28;1350;-65
2021/03/02 11:38:26;;;;;;;;;;;20.50;56.30;;;;;;5054644;28;1385;-64
2021/03/02 11:40:52;;;;;;;;;;;20.50;56.30;;;;;;5054888;28;2056;-67
2021/03/02 11:43:18;;;;;;;;;;;20.50;56.50;;;;;;5054891;28;1333;-65
2021/03/02 11:45:43;;;;;;;;;;;20.50;56.60;;;;;;5037328;28;1329;-65
2021/03/02 11:48:09;;;;;;;;;;;20.50;56.50;;;;;;5054593;28;1306;-68
2021/03/02 11:50:35;;;;;;;;;;;20.50;56.50;;;;;;5055197;28;1207;-67
2021/03/02 11:53:00;;;;;;;;;;;20.50;56.50;;;;;;5054823;28;1300;-68
2021/03/02 11:55:25;;;;;;;;;;;20.60;56.50;;;;;;5055085;28;1260;-69
2021/03/02 11:57:51;;;;;;;;;;;20.60;56.50;;;;;;5054045;28;1341;-66
2021/03/02 12:00:17;;;;;;;;;;;20.60;56.50;;;;;;5054731;28;1945;-66
2021/03/02 12:02:43;;;;;;;;;;;20.60;56.40;;;;;;5054944;28;1308;-67
2021/03/02 12:05:09;;;;;;;;;;;20.60;56.40;;;;;;5054849;28;1364;-67
2021/03/02 12:07:34;;;;;;;;;;;20.60;56.40;;;;;;5054155;28;1304;-65
2021/03/02 12:10:00;;;;;;;;;;;20.50;56.40;;;;;;5036840;28;1344;-66
2021/03/02 12:12:25;;;;;;;;;;;20.60;56.40;;;;;;5054640;28;1339;-66
2021/03/02 12:14:51;;;;;;;;;;;20.60;56.20;;;;;;5054667;28;1028;-65
2021/03/02 12:17:16;;;;;;;;;;;20.50;56.30;;;;;;5054097;28;1391;-65
2021/03/02 12:19:42;;;;;;;;;;;20.50;56.30;;;;;;5054346;28;1898;-65
2021/03/02 12:22:07;;;;;;;;;;;20.50;56.30;;;;;;5054726;28;1237;-66
2021/03/02 12:24:32;;;;;;;;;;;20.50;56.40;;;;;;5054476;28;1288;-65
2021/03/02 12:26:58;;;;;;;;;;;20.50;56.50;;;;;;5053892;28;1287;-65
2021/03/02 12:29:23;;;;;;;;;;;20.40;56.50;;;;;;5053511;28;1288;-64
2021/03/02 12:31:49;;;;;;;;;;;20.50;56.50;;;;;;5054407;28;1337;-65
2021/03/02 12:34:14;;;;;;;;;;;20.50;56.70;;;;;;5036713;28;1181;-65
2021/03/02 12:36:40;;;;;;;;;;;20.40;56.80;;;;;;5050869;28;1387;-65
2021/03/02 12:39:06;;;;;;;;;;;20.50;56.80;;;;;;5035159;28;1906;-65
2021/03/02 12:41:31;;;;;;;;;;;20.50;57.10;;;;;;5036340;28;1383;-65
2021/03/02 12:43:56;;;;;;;;;;;20.40;57.00;;;;;;5053973;28;1268;-65
2021/03/02 12:46:22;;;;;;;;;;;20.40;57.00;;;;;;5053748;28;1332;-65
2021/03/02 12:48:47;;;;;;;;;;;20.40;57.10;;;;;;5054090;28;1255;-64
2021/03/02 12:51:13;;;;;;;;;;;20.40;57.10;;;;;;5054270;28;1258;-66
2021/03/02 12:53:38;;;;;;;;;;;20.40;57.30;;;;;;5054282;28;1095;-66
2021/03/02 12:56:04;;;;;;;;;;;20.50;57.10;;;;;;5053716;28;1292;-65
2021/03/02 12:58:29;;;;;;;;;;;20.50;57.30;;;;;;5035735;28;1385;-64
2021/03/02 13:00:55;;;;;;;;;;;20.40;57.20;;;;;;5053603;28;1306;-65
2021/03/02 13:03:20;;;;;;;;;;;20.50;57.10;;;;;;5053528;28;1307;-64
2021/03/02 13:05:45;;;;;;;;;;;20.50;57.00;;;;;;5035862;28;1328;-64
2021/03/02 13:08:12;;;;;;;;;;;20.50;57.00;;;;;;5053265;28;1361;-65
2021/03/02 13:10:38;;;;;;;;;;;20.50;56.90;;;;;;5053170;28;1312;-64
2021/03/02 13:13:04;;;;;;;;;;;20.50;56.70;;;;;;5053728;28;1366;-65
2021/03/02 13:15:29;;;;;;;;;;;20.50;56.50;;;;;;5053322;28;1122;-65
2021/03/02 13:17:58;;;;;;;;;;;20.60;56.40;;;;;;5052971;28;1304;-65
2021/03/02 13:20:23;;;;;;;;;;;20.70;56.30;;;;;;5053395;28;1902;-65
2021/03/02 13:22:49;;;;;;;;;;;20.70;56.10;;;;;;5053250;28;1259;-64
2021/03/02 13:25:15;;;;;;;;;;;20.80;56.00;;;;;;5017325;28;1314;-65
2021/03/02 13:27:40;;;;;;;;;;;20.80;55.80;;;;;;5045378;28;2123;-67
2021/03/02 13:30:08;;;;;;;;;;;20.90;55.60;;;;;;5013782;28;1307;-67
2021/03/02 13:32:45;;;;;;;;;;;20.90;55.50;;;;;;5031239;28;1282;-66
2021/03/02 13:35:11;;;;;;;;;;;21.00;55.50;;;;;;5021370;28;1238;-66
2021/03/02 13:37:36;;;;;;;;;;;21.00;55.30;;;;;;5034734;28;1299;-66
2021/03/02 13:40:03;;;;;;;;;;;21.00;55.30;;;;;;5052577;28;1967;-65
2021/03/02 13:42:28;;;;;;;;;;;21.00;55.20;;;;;;5053376;28;1283;-66
2021/03/02 13:44:54;;;;;;;;;;;21.10;55.20;;;;;;5035121;28;1365;-67
2021/03/02 13:47:20;;;;;;;;;;;21.10;55.20;;;;;;5034679;28;1801;-67
2021/03/02 13:49:45;;;;;;;;;;;21.10;55.10;;;;;;5034753;28;1342;-66
2021/03/02 13:52:10;;;;;;;;;;;21.10;55.10;;;;;;5035204;28;1332;-66
2021/03/02 13:54:36;;;;;;;;;;;21.10;55.20;;;;;;5034716;28;1312;-66
2021/03/02 13:57:01;;;;;;;;;;;21.10;55.20;;;;;;5034639;28;1341;-67
2021/03/02 13:59:27;;;;;;;;;;;21.10;55.20;;;;;;5052519;28;1959;-68
2021/03/02 14:01:52;;;;;;;;;;;21.10;55.20;;;;;;5052861;28;1342;-66
2021/03/02 14:04:18;;;;;;;;;;;21.10;55.30;;;;;;5052481;28;1315;-66
2021/03/02 14:06:44;;;;;;;;;;;21.10;55.80;;;;;;5052384;28;1285;-66
2021/03/02 14:09:09;;;;;;;;;;;21.10;55.60;;;;;;5052238;28;1375;-66
2021/03/02 14:11:35;;;;;;;;;;;21.10;55.70;;;;;;5052376;28;1332;-66
2021/03/02 14:14:04;;;;;;;;;;;21.10;56.10;;;;;;5052273;28;1188;-67
2021/03/02 14:16:29;;;;;;;;;;;21.10;56.10;;;;;;5052587;28;1268;-66
2021/03/02 14:18:58;;;;;;;;;;;21.10;56.20;;;;;;5033726;28;1946;-66
2021/03/02 14:21:24;;;;;;;;;;;21.10;56.20;;;;;;5035004;28;1350;-66
2021/03/02 14:23:49;;;;;;;;;;;21.10;56.10;;;;;;5052467;28;1273;-66
2021/03/02 14:26:15;;;;;;;;;;;21.00;56.00;;;;;;5052182;28;1321;-66
2021/03/02 14:28:40;;;;;;;;;;;21.00;56.50;;;;;;5052529;28;1382;-64
2021/03/02 14:31:06;;;;;;;;;;;21.00;56.50;;;;;;5052280;28;1088;-65
2021/03/02 14:33:31;;;;;;;;;;;21.00;56.40;;;;;;5034344;28;1190;-64